createdAt,value
2022-11-30T00:01:32.683Z,39.63
2022-11-30T00:04:01.576Z,39.63
2022-11-30T00:06:31.625Z,39.77
2022-11-30T00:09:00.725Z,43.53
2022-11-30T00:11:30.158Z,30.80
2022-11-30T00:13:58.957Z,30.67
2022-11-30T00:16:28.051Z,32.53
2022-11-30T00:18:56.687Z,29.63
2022-11-30T00:21:25.235Z,26.47
2022-11-30T00:23:55.220Z,28.03
2022-11-30T00:26:23.488Z,32.17
2022-11-30T00:28:51.691Z,34.13
2022-11-30T00:31:21.028Z,43.43
2022-11-30T00:33:49.993Z,37.73
2022-11-30T00:36:20.275Z,33.77
2022-11-30T00:38:50.985Z,42.53
2022-11-30T00:41:21.235Z,45.73
2022-11-30T00:43:50.172Z,32.60
2022-11-30T00:46:18.999Z,33.73
2022-11-30T00:48:47.638Z,36.70
2022-11-30T00:51:16.164Z,32.70
2022-11-30T00:53:44.434Z,30.37
2022-11-30T00:56:12.764Z,31.90
2022-11-30T00:58:42.466Z,34.93
2022-11-30T01:01:11.037Z,41.17
2022-11-30T01:03:39.304Z,43.77
2022-11-30T01:06:09.308Z,52.80
2022-11-30T01:08:37.811Z,42.03
2022-11-30T01:11:09.304Z,40.70
2022-11-30T01:13:37.512Z,42.93
2022-11-30T01:16:13.191Z,43.67
2022-11-30T01:18:41.448Z,46.37
2022-11-30T01:21:11.724Z,33.30
2022-11-30T01:23:39.972Z,36.47
2022-11-30T01:26:17.769Z,32.83
2022-11-30T01:28:46.246Z,36.00
2022-11-30T01:31:16.878Z,33.90
2022-11-30T01:33:45.117Z,32.20
2022-11-30T01:36:14.787Z,35.27
2022-11-30T01:38:44.424Z,33.57
2022-11-30T01:41:16.183Z,34.07
2022-11-30T01:43:45.845Z,34.30
2022-11-30T01:46:37.628Z,33.90
2022-11-30T01:49:18.189Z,35.77
2022-11-30T01:51:49.291Z,39.33
2022-11-30T01:54:20.727Z,36.37
2022-11-30T01:56:53.513Z,38.97
2022-11-30T01:59:23.334Z,38.00
2022-11-30T02:01:54.019Z,41.30
2022-11-30T02:04:25.025Z,38.53
2022-11-30T02:06:53.537Z,31.90
2022-11-30T02:09:23.688Z,32.80
2022-11-30T02:11:52.114Z,40.30
2022-11-30T02:14:31.214Z,35.63
2022-11-30T02:17:09.391Z,38.40
2022-11-30T02:20:18.066Z,39.37
2022-11-30T02:23:10.005Z,34.10
2022-11-30T02:25:48.478Z,31.77
2022-11-30T02:28:39.954Z,32.00
2022-11-30T02:31:12.822Z,36.57
2022-11-30T02:33:42.339Z,34.70
2022-11-30T02:36:11.647Z,35.90
2022-11-30T02:38:40.819Z,38.70
2022-11-30T02:41:09.000Z,40.57
2022-11-30T02:43:39.434Z,32.20
2022-11-30T02:46:15.793Z,32.00
2022-11-30T02:48:48.132Z,30.77
2022-11-30T02:51:21.197Z,39.00
2022-11-30T02:53:50.114Z,27.07
2022-11-30T02:56:19.857Z,27.00
2022-11-30T02:58:49.409Z,24.67
2022-11-30T03:01:17.616Z,22.77
2022-11-30T03:03:45.954Z,24.63
2022-11-30T03:06:14.109Z,23.60
2022-11-30T03:08:42.245Z,25.90
2022-11-30T03:11:10.328Z,23.13
2022-11-30T03:13:38.421Z,17.20
2022-11-30T03:16:12.648Z,17.80
2022-11-30T03:18:41.637Z,17.53
2022-11-30T03:21:11.181Z,19.17
2022-11-30T03:23:40.232Z,17.30
2022-11-30T03:26:09.787Z,16.30
2022-11-30T03:28:38.552Z,15.30
2022-11-30T03:31:07.171Z,17.40
2022-11-30T03:33:36.696Z,16.17
2022-11-30T03:36:07.371Z,16.00
2022-11-30T03:38:35.788Z,16.10
2022-11-30T03:41:05.493Z,15.93
2022-11-30T03:43:33.817Z,19.33
2022-11-30T03:46:02.117Z,15.60
2022-11-30T03:48:30.701Z,14.77
2022-11-30T03:51:00.410Z,18.40
2022-11-30T03:53:28.813Z,18.60
2022-11-30T03:55:58.765Z,16.40
2022-11-30T03:58:27.463Z,22.50
2022-11-30T04:01:01.965Z,22.13
2022-11-30T04:03:30.945Z,17.90
2022-11-30T04:06:00.929Z,14.70
2022-11-30T04:08:29.774Z,14.77
2022-11-30T04:10:59.682Z,12.67
2022-11-30T04:13:28.420Z,11.70
2022-11-30T04:15:56.909Z,10.37
2022-11-30T04:18:26.607Z,11.50
2022-11-30T04:20:56.501Z,10.37
2022-11-30T04:23:27.854Z,9.37
2022-11-30T04:25:56.078Z,12.13
2022-11-30T04:28:24.341Z,9.60
2022-11-30T04:30:54.336Z,11.17
2022-11-30T04:33:22.745Z,13.50
2022-11-30T04:35:55.039Z,12.67
2022-11-30T04:38:23.707Z,13.17
2022-11-30T04:40:53.547Z,16.43
2022-11-30T04:43:22.038Z,13.13
2022-11-30T04:45:50.716Z,12.60
2022-11-30T04:48:21.212Z,12.80
2022-11-30T04:50:49.339Z,13.00
2022-11-30T04:53:17.475Z,13.40
2022-11-30T04:55:45.633Z,17.20
2022-11-30T04:58:15.191Z,11.80
2022-11-30T05:00:43.365Z,10.40
2022-11-30T05:03:11.545Z,9.70
2022-11-30T05:05:39.725Z,10.43
2022-11-30T05:08:08.068Z,14.17
2022-11-30T05:10:36.280Z,10.80
2022-11-30T05:13:04.454Z,10.90
2022-11-30T05:15:34.243Z,12.10
2022-11-30T05:18:03.371Z,12.63
2022-11-30T05:20:31.512Z,11.77
2022-11-30T05:22:59.682Z,10.17
2022-11-30T05:25:28.012Z,12.40
2022-11-30T05:27:56.183Z,10.60
2022-11-30T05:30:24.396Z,12.10
2022-11-30T05:32:54.469Z,10.03
2022-11-30T05:35:22.662Z,10.50
2022-11-30T05:37:50.847Z,10.37
2022-11-30T05:40:19.183Z,10.37
2022-11-30T05:42:47.379Z,10.37
2022-11-30T05:45:15.679Z,14.53
2022-11-30T05:47:43.866Z,11.30
2022-11-30T05:50:13.491Z,9.60
2022-11-30T05:52:41.752Z,10.17
2022-11-30T05:55:10.222Z,16.63
2022-11-30T05:57:38.477Z,11.03
2022-11-30T06:00:08.326Z,13.83
2022-11-30T06:02:36.841Z,13.10
2022-11-30T06:05:05.358Z,11.23
2022-11-30T06:07:35.046Z,10.17
2022-11-30T06:10:03.292Z,10.60
2022-11-30T06:12:31.427Z,12.50
2022-11-30T06:15:00.260Z,10.87
2022-11-30T06:17:28.784Z,9.23
2022-11-30T06:19:56.989Z,117.13
2022-11-30T06:22:25.280Z,45.13
2022-11-30T06:24:55.200Z,12.17
2022-11-30T06:27:23.477Z,16.03
2022-11-30T06:29:51.622Z,14.20
2022-11-30T06:32:19.724Z,27.33
2022-11-30T06:34:48.178Z,13.77
2022-11-30T06:37:16.405Z,13.57
2022-11-30T06:40:05.356Z,16.03
2022-11-30T06:42:34.300Z,19.30
2022-11-30T06:45:02.427Z,17.00
2022-11-30T06:47:30.567Z,23.73
2022-11-30T06:49:58.793Z,21.47
2022-11-30T06:52:27.100Z,15.50
2022-11-30T06:54:55.264Z,25.00
2022-11-30T06:57:27.987Z,19.17
2022-11-30T06:59:57.906Z,16.50
2022-11-30T07:02:26.267Z,21.00
2022-11-30T07:04:54.361Z,18.40
2022-11-30T07:07:22.647Z,21.80
2022-11-30T07:09:52.159Z,22.10
2022-11-30T07:12:20.260Z,22.30
2022-11-30T07:14:49.711Z,17.40
2022-11-30T07:17:19.495Z,20.27
2022-11-30T07:19:48.167Z,15.13
2022-11-30T07:22:16.604Z,14.70
2022-11-30T07:25:01.973Z,16.97
2022-11-30T07:27:30.067Z,11.07
2022-11-30T07:29:58.361Z,12.80
2022-11-30T07:32:27.879Z,16.40
2022-11-30T07:34:55.958Z,15.40
2022-11-30T07:37:24.426Z,13.13
2022-11-30T07:39:52.569Z,15.10
2022-11-30T07:42:20.802Z,8.90
2022-11-30T07:44:53.755Z,10.80
2022-11-30T07:47:25.259Z,10.50
2022-11-30T07:49:54.887Z,12.03
2022-11-30T07:52:23.147Z,16.60
2022-11-30T07:54:51.468Z,11.43
2022-11-30T07:57:19.612Z,13.20
2022-11-30T07:59:47.931Z,13.00
2022-11-30T08:02:16.379Z,13.10
2022-11-30T08:04:44.683Z,13.77
2022-11-30T08:07:14.802Z,13.47
2022-11-30T08:09:45.101Z,14.87
2022-11-30T08:12:13.300Z,14.90
2022-11-30T08:15:17.663Z,21.77
2022-11-30T08:17:31.560Z,16.53
2022-11-30T08:19:59.719Z,16.47
2022-11-30T08:22:29.321Z,12.63
2022-11-30T08:24:57.515Z,12.70
2022-11-30T08:27:25.751Z,14.63
2022-11-30T08:29:54.160Z,13.00
2022-11-30T08:32:22.387Z,13.80
2022-11-30T08:34:50.721Z,11.33
2022-11-30T08:37:18.919Z,11.07
2022-11-30T08:39:48.488Z,14.43
2022-11-30T08:42:16.630Z,15.07
2022-11-30T08:44:44.825Z,17.20
2022-11-30T08:47:13.041Z,13.33
2022-11-30T08:49:41.252Z,14.90
2022-11-30T08:52:18.262Z,11.93
2022-11-30T08:54:49.112Z,14.30
2022-11-30T08:57:18.616Z,12.67
2022-11-30T08:59:47.479Z,12.20
2022-11-30T09:02:18.794Z,13.50
2022-11-30T09:04:49.665Z,13.20
2022-11-30T09:07:18.524Z,13.10
2022-11-30T09:09:48.169Z,16.03
2022-11-30T09:12:16.354Z,11.00
2022-11-30T09:14:45.911Z,12.00
2022-11-30T09:17:15.419Z,11.60
2022-11-30T09:19:43.598Z,14.57
2022-11-30T09:22:11.800Z,13.33
2022-11-30T09:24:39.943Z,14.60
2022-11-30T09:27:09.552Z,14.00
2022-11-30T09:29:37.983Z,15.70
2022-11-30T09:32:06.816Z,14.47
2022-11-30T09:34:35.113Z,14.27
2022-11-30T09:37:03.480Z,12.77
2022-11-30T09:39:31.653Z,12.37
2022-11-30T09:42:19.767Z,11.20
2022-11-30T09:44:59.735Z,13.03
2022-11-30T09:47:54.443Z,11.30
2022-11-30T09:50:27.435Z,13.20
2022-11-30T09:52:58.243Z,13.67
2022-11-30T09:55:30.637Z,13.60
2022-11-30T09:58:02.865Z,12.90
2022-11-30T10:00:31.279Z,18.70
2022-11-30T10:03:03.312Z,13.40
2022-11-30T10:05:46.467Z,14.30
2022-11-30T10:08:50.409Z,22.63
2022-11-30T10:11:33.310Z,14.67
2022-11-30T10:14:19.301Z,21.07
2022-11-30T10:16:53.709Z,19.10
2022-11-30T10:19:40.166Z,22.87
2022-11-30T10:22:20.323Z,22.30
2022-11-30T10:25:11.515Z,18.63
2022-11-30T10:27:50.216Z,21.57
2022-11-30T10:30:22.569Z,17.23
2022-11-30T10:32:53.907Z,15.07
2022-11-30T10:35:33.350Z,14.23
2022-11-30T10:38:06.623Z,16.33
2022-11-30T10:40:39.905Z,15.30
2022-11-30T10:43:18.272Z,12.80
2022-11-30T10:45:49.846Z,13.60
2022-11-30T10:48:25.197Z,15.17
2022-11-30T10:50:54.368Z,13.53
2022-11-30T10:53:23.000Z,13.43
2022-11-30T10:55:58.211Z,15.50
2022-11-30T10:58:30.339Z,13.43
2022-11-30T11:01:08.785Z,15.20
2022-11-30T11:03:37.529Z,15.33
2022-11-30T11:06:17.692Z,15.00
2022-11-30T11:08:47.077Z,18.73
2022-11-30T11:11:30.535Z,15.57
2022-11-30T11:14:20.753Z,16.10
2022-11-30T11:16:56.253Z,15.40
2022-11-30T11:19:27.601Z,13.63
2022-11-30T11:21:55.863Z,17.10
2022-11-30T11:24:28.483Z,30.20
2022-11-30T11:26:58.042Z,11.50
2022-11-30T11:29:35.233Z,13.40
2022-11-30T11:32:25.965Z,23.70
2022-11-30T11:34:54.516Z,76.73
2022-11-30T11:37:26.290Z,12.70
2022-11-30T11:39:59.953Z,12.70
2022-11-30T11:42:31.934Z,13.53
2022-11-30T11:45:02.637Z,13.70
2022-11-30T11:47:49.097Z,15.10
2022-11-30T11:51:04.479Z,11.67
2022-11-30T11:53:23.021Z,12.63
2022-11-30T11:55:57.553Z,13.40
2022-11-30T11:58:37.196Z,12.67
2022-11-30T12:01:38.648Z,11.43
2022-11-30T12:04:14.494Z,12.70
2022-11-30T12:06:45.466Z,16.43
2022-11-30T12:09:17.539Z,12.57
2022-11-30T12:11:47.850Z,13.50
2022-11-30T12:14:17.597Z,15.03
2022-11-30T12:17:14.698Z,18.97
2022-11-30T12:19:55.654Z,13.73
2022-11-30T12:22:51.906Z,15.70
2022-11-30T12:25:25.890Z,22.33
2022-11-30T12:28:06.579Z,15.00
2022-11-30T12:30:44.903Z,11.30
2022-11-30T12:33:16.586Z,13.50
2022-11-30T12:35:59.292Z,12.10
2022-11-30T12:38:45.085Z,9.57
2022-11-30T12:41:30.955Z,10.47
2022-11-30T12:44:13.632Z,8.80
2022-11-30T12:46:47.570Z,9.03
2022-11-30T12:49:27.983Z,8.00
2022-11-30T12:52:06.000Z,8.03
2022-11-30T12:54:41.873Z,11.13
2022-11-30T12:57:17.385Z,8.50
2022-11-30T12:59:54.976Z,7.30
2022-11-30T13:02:55.720Z,9.70
2022-11-30T13:05:31.634Z,10.60
2022-11-30T13:08:09.014Z,7.00
2022-11-30T13:10:44.081Z,8.23
2022-11-30T13:13:17.960Z,10.23
2022-11-30T13:15:47.345Z,10.70
2022-11-30T13:18:20.346Z,7.83
2022-11-30T13:20:54.169Z,14.20
2022-11-30T13:23:32.503Z,7.50
2022-11-30T13:26:08.868Z,7.90
2022-11-30T13:28:55.762Z,6.93
2022-11-30T13:31:27.755Z,7.40
2022-11-30T13:34:00.311Z,7.43
2022-11-30T13:36:46.532Z,22.20
2022-11-30T13:39:27.062Z,9.13
2022-11-30T13:42:30.551Z,7.20
2022-11-30T13:44:59.040Z,7.63
2022-11-30T13:47:34.490Z,6.80
2022-11-30T13:50:08.706Z,9.50
2022-11-30T13:53:07.867Z,15.40
2022-11-30T13:55:53.038Z,7.10
2022-11-30T13:58:21.712Z,9.20
2022-11-30T14:01:21.773Z,13.90
2022-11-30T14:04:19.555Z,7.20
2022-11-30T14:06:50.131Z,9.03
2022-11-30T14:09:38.831Z,7.03
2022-11-30T14:12:40.950Z,8.10
2022-11-30T14:15:51.983Z,6.10
2022-11-30T14:18:42.101Z,8.47
2022-11-30T14:21:20.906Z,9.67
2022-11-30T14:23:55.368Z,10.43
2022-11-30T14:26:28.456Z,7.40
2022-11-30T14:29:03.349Z,10.90
2022-11-30T14:31:35.327Z,9.17
2022-11-30T14:34:10.849Z,15.90
2022-11-30T14:36:44.754Z,12.93
2022-11-30T14:39:32.536Z,9.47
2022-11-30T14:42:01.161Z,6.43
2022-11-30T14:44:34.750Z,8.00
2022-11-30T14:47:14.557Z,17.17
2022-11-30T14:49:48.713Z,10.57
2022-11-30T14:52:28.527Z,8.63
2022-11-30T14:55:10.409Z,9.07
2022-11-30T14:57:44.974Z,9.07
2022-11-30T15:00:17.334Z,11.33
2022-11-30T15:02:46.684Z,22.90
2022-11-30T15:05:18.434Z,13.03
2022-11-30T15:07:47.518Z,21.37
2022-11-30T15:10:19.105Z,16.57
2022-11-30T15:12:47.682Z,14.80
2022-11-30T15:15:19.141Z,21.60
2022-11-30T15:17:50.841Z,7.70
2022-11-30T15:20:29.907Z,15.17
2022-11-30T15:23:01.951Z,19.83
2022-11-30T15:25:36.350Z,15.30
2022-11-30T15:28:05.231Z,12.70
2022-11-30T15:30:37.147Z,11.57
2022-11-30T15:33:05.627Z,8.60
2022-11-30T15:35:57.238Z,12.60
2022-11-30T15:38:26.466Z,11.07
2022-11-30T15:41:03.392Z,18.30
2022-11-30T15:43:38.100Z,14.90
2022-11-30T15:46:07.290Z,14.33
2022-11-30T15:48:39.118Z,11.73
2022-11-30T15:51:23.448Z,15.63
2022-11-30T15:53:53.245Z,9.70
2022-11-30T15:56:25.880Z,14.03
2022-11-30T15:59:05.513Z,12.07
2022-11-30T16:02:01.756Z,17.33
2022-11-30T16:04:50.627Z,8.50
2022-11-30T16:07:20.722Z,11.70
2022-11-30T16:09:49.093Z,12.40
2022-11-30T16:12:29.526Z,9.60
2022-11-30T16:14:57.846Z,13.00
2022-11-30T16:17:27.485Z,16.80
2022-11-30T16:19:55.715Z,15.00
2022-11-30T16:22:25.197Z,10.37
2022-11-30T16:24:53.436Z,10.83
2022-11-30T16:27:22.649Z,14.57
2022-11-30T16:29:52.888Z,10.30
2022-11-30T16:32:21.250Z,14.40
2022-11-30T16:34:49.769Z,11.40
2022-11-30T16:37:17.893Z,18.03
2022-11-30T16:39:47.649Z,12.37
2022-11-30T16:42:16.050Z,13.20
2022-11-30T16:44:44.304Z,10.37
2022-11-30T16:47:12.443Z,10.80
2022-11-30T16:49:40.625Z,12.03
2022-11-30T16:52:15.949Z,16.07
2022-11-30T16:54:44.201Z,14.30
2022-11-30T16:57:13.915Z,11.57
2022-11-30T16:59:42.273Z,11.33
2022-11-30T17:02:19.714Z,11.00
2022-11-30T17:04:48.233Z,15.00
2022-11-30T17:07:16.580Z,9.70
2022-11-30T17:09:44.702Z,14.63
2022-11-30T17:12:14.229Z,8.50
2022-11-30T17:14:42.478Z,11.57
2022-11-30T17:17:10.738Z,7.27
2022-11-30T17:19:38.922Z,7.63
2022-11-30T17:22:07.022Z,13.47
2022-11-30T17:24:35.191Z,9.80
2022-11-30T17:27:05.564Z,8.27
2022-11-30T17:29:38.089Z,7.83
2022-11-30T17:32:06.857Z,8.77
2022-11-30T17:34:35.280Z,11.03
2022-11-30T17:37:03.505Z,9.00
2022-11-30T17:39:31.801Z,10.93
2022-11-30T17:42:00.126Z,10.30
2022-11-30T17:44:28.369Z,12.83
2022-11-30T17:46:58.090Z,30.70
2022-11-30T17:49:26.912Z,13.30
2022-11-30T17:51:55.336Z,10.00
2022-11-30T17:54:23.579Z,8.83
2022-11-30T17:56:53.035Z,11.67
2022-11-30T17:59:22.329Z,10.33
2022-11-30T18:01:51.260Z,14.30
2022-11-30T18:04:20.936Z,9.60
2022-11-30T18:06:49.897Z,13.00
2022-11-30T18:09:18.707Z,8.60
2022-11-30T18:11:50.268Z,14.23
2022-11-30T18:14:19.058Z,12.70
2022-11-30T18:16:47.776Z,11.47
2022-11-30T18:19:18.264Z,9.83
2022-11-30T18:21:48.534Z,10.33
2022-11-30T18:24:21.178Z,11.30
2022-11-30T18:26:54.883Z,10.90
2022-11-30T18:29:24.100Z,11.07
2022-11-30T18:31:52.823Z,10.40
2022-11-30T18:34:22.549Z,23.23
2022-11-30T18:36:52.148Z,10.77
2022-11-30T18:39:20.483Z,10.60
2022-11-30T18:41:49.158Z,13.77
2022-11-30T18:44:17.555Z,13.23
2022-11-30T18:46:45.809Z,10.50
2022-11-30T18:49:14.985Z,16.80
2022-11-30T18:51:43.215Z,10.50
2022-11-30T18:54:13.088Z,13.43
2022-11-30T18:56:41.336Z,14.93
2022-11-30T18:59:12.470Z,15.10
2022-11-30T19:01:40.715Z,11.97
2022-11-30T19:04:11.440Z,14.33
2022-11-30T19:06:41.348Z,15.27
2022-11-30T19:09:24.241Z,12.50
2022-11-30T19:11:53.157Z,15.83
2022-11-30T19:14:22.292Z,29.83
2022-11-30T19:16:51.615Z,10.70
2022-11-30T19:19:24.350Z,10.57
2022-11-30T19:21:58.560Z,12.50
2022-11-30T19:24:35.382Z,16.07
2022-11-30T19:27:07.398Z,15.53
2022-11-30T19:29:42.437Z,12.47
2022-11-30T19:32:17.240Z,11.47
2022-11-30T19:34:46.396Z,11.30
2022-11-30T19:37:18.732Z,13.13
2022-11-30T19:39:51.737Z,12.70
2022-11-30T19:42:23.220Z,11.60
2022-11-30T19:44:54.947Z,12.87
2022-11-30T19:47:26.238Z,12.63
2022-11-30T19:49:55.299Z,12.70
2022-11-30T19:52:27.562Z,13.80
2022-11-30T19:54:59.107Z,14.03
2022-11-30T19:57:28.495Z,24.33
2022-11-30T20:00:02.098Z,13.10
2022-11-30T20:02:34.043Z,14.10
2022-11-30T20:05:06.565Z,14.20
2022-11-30T20:07:36.420Z,15.90
2022-11-30T20:10:13.561Z,13.53
2022-11-30T20:12:43.646Z,14.00
2022-11-30T20:15:14.283Z,16.53
2022-11-30T20:17:44.970Z,14.70
2022-11-30T20:20:15.067Z,12.70
2022-11-30T20:22:43.862Z,12.50
2022-11-30T20:25:21.709Z,13.57
2022-11-30T20:27:50.555Z,12.67
2022-11-30T20:30:19.489Z,20.83
2022-11-30T20:32:48.248Z,29.97
2022-11-30T20:35:19.557Z,25.47
2022-11-30T20:37:48.429Z,15.70
2022-11-30T20:40:21.203Z,16.37
2022-11-30T20:42:52.927Z,18.20
2022-11-30T20:45:22.876Z,31.20
2022-11-30T20:47:55.262Z,18.10
2022-11-30T20:50:25.996Z,27.97
2022-11-30T20:52:55.016Z,25.70
2022-11-30T20:55:25.461Z,23.13
2022-11-30T20:57:54.427Z,23.83
2022-11-30T21:00:26.205Z,23.77
2022-11-30T21:02:55.935Z,23.97
2022-11-30T21:05:25.720Z,21.80
2022-11-30T21:07:55.716Z,13.70
2022-11-30T21:10:26.955Z,15.57
2022-11-30T21:12:58.759Z,16.90
2022-11-30T21:15:28.603Z,13.40
2022-11-30T21:18:00.090Z,12.13
2022-11-30T21:20:29.127Z,16.63
2022-11-30T21:23:04.956Z,15.30
2022-11-30T21:25:37.412Z,11.30
2022-11-30T21:28:08.514Z,14.30
2022-11-30T21:30:39.920Z,11.90
2022-11-30T21:33:10.276Z,18.57
2022-11-30T21:35:40.167Z,11.07
2022-11-30T21:38:09.500Z,11.90
2022-11-30T21:40:42.115Z,11.80
2022-11-30T21:43:15.231Z,19.20
2022-11-30T21:45:44.137Z,12.53
2022-11-30T21:48:13.488Z,11.90
2022-11-30T21:50:42.084Z,12.80
2022-11-30T21:53:11.590Z,15.57
2022-11-30T21:55:42.474Z,15.40
2022-11-30T21:58:12.591Z,12.90
2022-11-30T22:00:43.203Z,13.13
2022-11-30T22:03:15.736Z,14.30
2022-11-30T22:06:01.970Z,12.27
2022-11-30T22:08:34.785Z,11.73
2022-11-30T22:11:06.506Z,12.13
2022-11-30T22:13:39.853Z,12.83
2022-11-30T22:16:11.449Z,12.80
2022-11-30T22:18:41.777Z,11.57
2022-11-30T22:21:13.813Z,11.50
2022-11-30T22:23:44.351Z,20.20
2022-11-30T22:26:16.930Z,15.60
2022-11-30T22:28:47.735Z,12.13
2022-11-30T22:31:19.182Z,13.67
2022-11-30T22:33:49.003Z,20.33
2022-11-30T22:36:20.176Z,16.73
2022-11-30T22:38:49.851Z,13.30
2022-11-30T22:41:22.344Z,14.30
2022-11-30T22:43:52.909Z,11.80
2022-11-30T22:46:24.593Z,13.70
2022-11-30T22:48:54.099Z,13.30
2022-11-30T22:51:24.971Z,14.70
2022-11-30T22:53:54.024Z,14.77
2022-11-30T22:56:25.478Z,14.53
2022-11-30T22:58:55.049Z,11.20
2022-11-30T23:01:25.282Z,11.93
2022-11-30T23:03:56.460Z,13.73
2022-11-30T23:06:25.895Z,12.63
2022-11-30T23:08:54.383Z,13.10
2022-11-30T23:11:25.636Z,12.97
2022-11-30T23:13:54.037Z,10.40
2022-11-30T23:16:22.948Z,10.63
2022-11-30T23:18:54.079Z,11.70
2022-11-30T23:21:24.269Z,18.27
2022-11-30T23:23:53.003Z,9.73
2022-11-30T23:26:24.604Z,11.47
2022-11-30T23:28:54.461Z,10.27
2022-11-30T23:31:34.402Z,9.57
2022-11-30T23:34:05.481Z,16.50
2022-11-30T23:36:33.801Z,11.50
2022-11-30T23:39:04.712Z,12.90
2022-11-30T23:41:34.283Z,12.43
2022-11-30T23:44:03.159Z,14.87
2022-11-30T23:46:31.427Z,12.33
2022-11-30T23:48:59.653Z,16.27
2022-11-30T23:51:27.971Z,11.90
2022-11-30T23:53:56.837Z,13.97
2022-11-30T23:56:25.711Z,12.60
2022-11-30T23:58:55.220Z,13.70
